Time;durP1;ratioP1;P1;durP2;ratioP2;P2;SDS_P1;SDS_P2;PMS_P1;PMS_P2;Temp;Humidity;BMP_temperature;BMP_pressure;BME280_temperature;BME280_humidity;BME280_pressure;Samples;Min_cycle;Max_cycle;Signal;HPM_P1;HPM_P2
2024/01/08 00:01:16;;;;;;;24.38;22.75;;;;;;;;;;5015622;28;20217;-80
2024/01/08 00:03:43;;;;;;;23.85;22.25;;;;;;;;;;5016221;28;20197;-79
2024/01/08 00:06:10;;;;;;;22.90;21.45;;;;;;;;;;5016951;28;20202;-80
2024/01/08 00:08:38;;;;;;;22.38;20.88;;;;;;;;;;5016568;28;20335;-80
2024/01/08 00:11:05;;;;;;;23.73;22.23;;;;;;;;;;5015263;28;20260;-81
2024/01/08 00:13:32;;;;;;;24.48;22.77;;;;;;;;;;5015993;28;20689;-79
2024/01/08 00:15:59;;;;;;;23.67;22.05;;;;;;;;;;5016817;28;20201;-80
2024/01/08 00:18:28;;;;;;;23.00;21.60;;;;;;;;;;5016965;28;20288;-80
2024/01/08 00:20:55;;;;;;;23.00;21.63;;;;;;;;;;5015969;28;20662;-78
2024/01/08 00:23:22;;;;;;;25.52;23.77;;;;;;;;;;5015790;28;20206;-79
2024/01/08 00:25:51;;;;;;;25.20;23.40;;;;;;;;;;5015863;28;20209;-79
2024/01/08 00:28:18;;;;;;;25.27;23.45;;;;;;;;;;5015816;28;20294;-81
2024/01/08 00:30:45;;;;;;;25.17;23.42;;;;;;;;;;4999486;28;20272;-78
2024/01/08 00:33:12;;;;;;;26.05;24.25;;;;;;;;;;5000218;28;20234;-78
2024/01/08 00:35:39;;;;;;;24.25;22.58;;;;;;;;;;4999813;28;20230;-79
2024/01/08 00:38:06;;;;;;;24.48;22.67;;;;;;;;;;4999566;28;20230;-78
2024/01/08 00:40:33;;;;;;;24.52;22.80;;;;;;;;;;4999937;28;20214;-78
2024/01/08 00:43:02;;;;;;;23.33;21.83;;;;;;;;;;5000382;28;20211;-80
2024/01/08 00:45:28;;;;;;;24.00;22.27;;;;;;;;;;4999962;28;20214;-81
2024/01/08 00:47:55;;;;;;;23.80;22.15;;;;;;;;;;4999969;28;20245;-78
2024/01/08 00:50:23;;;;;;;23.08;21.70;;;;;;;;;;5000247;28;20214;-78
2024/01/08 00:52:50;;;;;;;23.15;21.55;;;;;;;;;;4999465;28;20226;-80
2024/01/08 00:55:23;;;;;;;22.77;21.27;;;;;;;;;;4999386;28;20246;-80
2024/01/08 00:57:50;;;;;;;25.75;24.00;;;;;;;;;;5000057;28;20230;-80
2024/01/08 01:00:18;;;;;;;22.90;21.20;;;;;;;;;;5000085;28;20350;-79
2024/01/08 01:02:45;;;;;;;22.92;21.30;;;;;;;;;;5000255;28;20209;-79
2024/01/08 01:05:12;;;;;;;23.67;22.08;;;;;;;;;;4999953;28;20209;-80
2024/01/08 01:07:39;;;;;;;25.83;23.83;;;;;;;;;;5000319;28;20304;-81
2024/01/08 01:10:07;;;;;;;24.88;23.20;;;;;;;;;;5000133;28;20276;-78
2024/01/08 01:12:34;;;;;;;24.08;22.55;;;;;;;;;;4999313;28;20210;-80
2024/01/08 01:15:01;;;;;;;25.50;23.63;;;;;;;;;;5000257;28;20316;-79
2024/01/08 01:17:29;;;;;;;25.23;23.58;;;;;;;;;;4999431;28;20238;-78
2024/01/08 01:19:56;;;;;;;24.35;22.65;;;;;;;;;;5000093;28;20205;-78
2024/01/08 01:22:23;;;;;;;25.08;23.10;;;;;;;;;;4998881;28;20206;-80
2024/01/08 01:24:50;;;;;;;24.83;23.15;;;;;;;;;;4999121;28;20245;-78
2024/01/08 01:27:17;;;;;;;25.48;23.52;;;;;;;;;;4999724;28;20230;-79
2024/01/08 01:29:44;;;;;;;25.98;23.80;;;;;;;;;;4999462;28;20214;-78
2024/01/08 01:32:11;;;;;;;25.23;23.33;;;;;;;;;;4999150;28;20206;-79
2024/01/08 01:34:40;;;;;;;25.60;23.75;;;;;;;;;;4999809;28;20229;-78
2024/01/08 01:37:07;;;;;;;26.55;24.65;;;;;;;;;;4999128;28;20781;-79
2024/01/08 01:39:34;;;;;;;24.52;22.92;;;;;;;;;;5000276;28;20210;-79
2024/01/08 01:42:00;;;;;;;25.50;23.75;;;;;;;;;;5014288;28;20206;-79
2024/01/08 01:44:27;;;;;;;25.38;23.10;;;;;;;;;;5019767;28;20209;-79
2024/01/08 01:46:55;;;;;;;24.08;22.33;;;;;;;;;;5019757;28;20225;-79
2024/01/08 01:49:24;;;;;;;24.88;23.08;;;;;;;;;;5000114;28;20670;-80
2024/01/08 01:51:53;;;;;;;25.23;23.08;;;;;;;;;;4999525;28;20206;-79
2024/01/08 01:54:22;;;;;;;25.45;23.55;;;;;;;;;;4999993;28;20701;-79
2024/01/08 01:56:51;;;;;;;26.15;24.25;;;;;;;;;;4999770;28;20237;-80
2024/01/08 01:59:18;;;;;;;24.42;22.55;;;;;;;;;;5000707;28;20253;-80
2024/01/08 02:01:45;;;;;;;22.10;20.75;;;;;;;;;;4999429;28;20206;-80
2024/01/08 02:04:14;;;;;;;25.58;23.77;;;;;;;;;;4999512;28;20207;-79
2024/01/08 02:06:41;;;;;;;24.63;22.90;;;;;;;;;;4999235;28;20230;-79
2024/01/08 02:09:09;;;;;;;23.52;21.92;;;;;;;;;;5000026;28;20273;-79
2024/01/08 02:11:36;;;;;;;23.92;22.42;;;;;;;;;;4999809;28;20214;-78
2024/01/08 02:14:03;;;;;;;26.75;24.85;;;;;;;;;;4999692;28;20225;-79
2024/01/08 02:16:30;;;;;;;24.75;22.95;;;;;;;;;;4999625;28;20213;-79
2024/01/08 02:18:57;;;;;;;23.88;22.20;;;;;;;;;;4999901;28;20205;-79
2024/01/08 02:21:24;;;;;;;25.60;23.80;;;;;;;;;;4998935;28;20210;-78
2024/01/08 02:23:53;;;;;;;24.73;23.02;;;;;;;;;;4999735;28;20265;-80
2024/01/08 02:26:20;;;;;;;25.35;23.60;;;;;;;;;;4999458;28;20210;-79
2024/01/08 02:28:47;;;;;;;25.67;23.88;;;;;;;;;;5000006;28;20218;-80
2024/01/08 02:31:14;;;;;;;25.08;22.98;;;;;;;;;;4998801;28;20225;-80
2024/01/08 02:33:41;;;;;;;25.98;24.08;;;;;;;;;;4999953;28;20277;-79
2024/01/08 02:36:08;;;;;;;25.08;23.45;;;;;;;;;;4999707;28;20280;-80
2024/01/08 02:38:35;;;;;;;24.23;22.35;;;;;;;;;;4999081;28;20230;-79
2024/01/08 02:41:04;;;;;;;25.02;23.25;;;;;;;;;;4998879;28;20237;-79
2024/01/08 02:43:31;;;;;;;24.90;23.23;;;;;;;;;;4999850;28;20296;-78
2024/01/08 02:45:58;;;;;;;24.85;22.95;;;;;;;;;;4999209;28;20214;-80
2024/01/08 02:48:25;;;;;;;25.50;23.70;;;;;;;;;;4999545;28;20365;-79
2024/01/08 02:50:52;;;;;;;25.80;23.92;;;;;;;;;;4998597;28;20202;-79
2024/01/08 02:53:19;;;;;;;23.80;22.08;;;;;;;;;;4998767;28;20542;-79
2024/01/08 02:55:45;;;;;;;24.80;22.70;;;;;;;;;;4999012;28;20210;-80
2024/01/08 02:58:14;;;;;;;24.98;23.10;;;;;;;;;;4999553;28;20222;-79
2024/01/08 03:00:41;;;;;;;23.40;21.77;;;;;;;;;;4999050;28;20268;-80
2024/01/08 03:03:08;;;;;;;23.60;22.10;;;;;;;;;;4998939;28;20270;-79
2024/01/08 03:05:35;;;;;;;24.17;22.50;;;;;;;;;;4999323;28;20206;-79
2024/01/08 03:08:02;;;;;;;25.13;23.45;;;;;;;;;;4998928;28;20229;-79
2024/01/08 03:10:29;;;;;;;23.77;21.85;;;;;;;;;;4998584;28;20194;-81
2024/01/08 03:12:56;;;;;;;22.92;21.42;;;;;;;;;;4999312;28;20213;-79
2024/01/08 03:15:25;;;;;;;24.50;22.80;;;;;;;;;;4998905;28;20222;-81
2024/01/08 03:17:52;;;;;;;25.10;23.30;;;;;;;;;;5002299;28;20236;-80
2024/01/08 03:20:22;;;;;;;24.10;22.35;;;;;;;;;;5038238;28;20209;-80
2024/01/08 03:22:49;;;;;;;24.13;22.35;;;;;;;;;;5038140;28;20205;-80
2024/01/08 03:25:16;;;;;;;23.77;22.08;;;;;;;;;;5037628;28;20288;-80
2024/01/08 03:27:43;;;;;;;23.52;21.67;;;;;;;;;;5038222;28;20221;-79
2024/01/08 03:30:11;;;;;;;24.52;22.80;;;;;;;;;;5038334;28;20574;-78
2024/01/08 03:32:39;;;;;;;23.25;21.85;;;;;;;;;;5035038;28;20274;-80
2024/01/08 03:35:06;;;;;;;25.10;23.40;;;;;;;;;;5017892;28;20633;-81
2024/01/08 03:37:34;;;;;;;24.80;23.10;;;;;;;;;;5003982;28;20234;-81
2024/01/08 03:40:02;;;;;;;24.90;23.08;;;;;;;;;;4998191;28;20205;-79
2024/01/08 03:42:29;;;;;;;24.33;22.67;;;;;;;;;;4998377;28;20221;-81
2024/01/08 03:44:56;;;;;;;22.25;20.80;;;;;;;;;;4999499;28;20213;-79
2024/01/08 03:47:23;;;;;;;24.02;22.30;;;;;;;;;;4998802;28;20237;-80
2024/01/08 03:49:51;;;;;;;21.27;19.98;;;;;;;;;;4998251;28;20628;-79
2024/01/08 03:52:18;;;;;;;21.45;20.20;;;;;;;;;;4997374;28;20260;-78
2024/01/08 03:54:45;;;;;;;23.10;21.55;;;;;;;;;;4998567;28;20246;-80
2024/01/08 03:57:12;;;;;;;22.67;21.27;;;;;;;;;;4998517;28;20264;-79
2024/01/08 03:59:39;;;;;;;22.50;21.25;;;;;;;;;;4999179;28;20214;-78
2024/01/08 04:02:06;;;;;;;21.10;19.75;;;;;;;;;;4998126;28;20229;-78
2024/01/08 04:04:33;;;;;;;23.73;22.23;;;;;;;;;;5002452;28;20199;-79
2024/01/08 04:07:01;;;;;;;24.00;22.10;;;;;;;;;;5002130;28;20249;-81
2024/01/08 04:09:28;;;;;;;21.80;20.60;;;;;;;;;;5002538;28;20222;-80
2024/01/08 04:11:55;;;;;;;21.63;20.40;;;;;;;;;;5001950;28;20210;-81
2024/01/08 04:14:22;;;;;;;22.52;21.15;;;;;;;;;;5003118;28;20257;-80
2024/01/08 04:16:49;;;;;;;23.55;21.80;;;;;;;;;;5003004;28;20292;-81
2024/01/08 04:19:16;;;;;;;22.08;20.60;;;;;;;;;;5002580;28;20558;-79
2024/01/08 04:21:43;;;;;;;23.27;21.38;;;;;;;;;;5002487;28;20206;-79
2024/01/08 04:24:11;;;;;;;21.77;20.45;;;;;;;;;;5003287;28;20206;-81
2024/01/08 04:26:38;;;;;;;23.25;21.85;;;;;;;;;;5016337;28;20252;-78
2024/01/08 04:29:05;;;;;;;25.63;23.73;;;;;;;;;;5021813;28;20205;-79
2024/01/08 04:31:31;;;;;;;23.17;21.80;;;;;;;;;;5021761;28;20289;-79
2024/01/08 04:33:59;;;;;;;21.35;20.02;;;;;;;;;;5021302;28;20300;-80
2024/01/08 04:36:26;;;;;;;22.50;21.02;;;;;;;;;;5022396;28;20312;-79
2024/01/08 04:38:53;;;;;;;23.50;22.00;;;;;;;;;;5021994;28;20206;-81
2024/01/08 04:41:21;;;;;;;22.63;21.15;;;;;;;;;;5021306;28;20256;-79
2024/01/08 04:43:48;;;;;;;22.08;20.73;;;;;;;;;;5021336;28;20272;-79
2024/01/08 04:46:15;;;;;;;21.48;20.17;;;;;;;;;;5021264;28;20288;-79
2024/01/08 04:48:42;;;;;;;22.25;20.75;;;;;;;;;;5021857;28;20747;-80
2024/01/08 04:51:09;;;;;;;22.25;20.83;;;;;;;;;;5021559;28;20210;-79
2024/01/08 04:53:37;;;;;;;21.80;20.40;;;;;;;;;;5021774;28;20287;-80
2024/01/08 04:56:04;;;;;;;20.92;19.73;;;;;;;;;;5021455;28;20704;-80
2024/01/08 04:58:32;;;;;;;22.40;21.00;;;;;;;;;;5020668;28;20233;-79
2024/01/08 05:00:59;;;;;;;21.92;20.65;;;;;;;;;;5020886;28;20197;-79
2024/01/08 05:03:26;;;;;;;22.30;20.83;;;;;;;;;;5021427;28;20254;-81
2024/01/08 05:05:53;;;;;;;22.10;20.80;;;;;;;;;;5021031;28;20661;-80
2024/01/08 05:08:21;;;;;;;23.67;22.15;;;;;;;;;;5020554;28;20260;-79
2024/01/08 05:10:48;;;;;;;20.83;19.73;;;;;;;;;;5020140;28;20285;-81
2024/01/08 05:13:15;;;;;;;23.05;21.63;;;;;;;;;;5021662;28;20205;-80
2024/01/08 05:15:43;;;;;;;21.63;20.10;;;;;;;;;;5019682;28;20248;-79
2024/01/08 05:18:10;;;;;;;21.95;20.55;;;;;;;;;;5020213;28;20238;-79
2024/01/08 05:20:37;;;;;;;21.83;20.40;;;;;;;;;;5019201;28;20205;-80
2024/01/08 05:23:04;;;;;;;21.73;20.05;;;;;;;;;;5021664;28;20595;-80
2024/01/08 05:25:31;;;;;;;20.35;19.17;;;;;;;;;;5006422;28;20245;-79
2024/01/08 05:27:58;;;;;;;21.83;20.13;;;;;;;;;;5001102;28;20565;-80
2024/01/08 05:30:24;;;;;;;22.65;21.15;;;;;;;;;;5000763;28;20266;-80
2024/01/08 05:32:53;;;;;;;20.48;19.48;;;;;;;;;;5001148;28;20284;-81
2024/01/08 05:35:20;;;;;;;21.88;20.08;;;;;;;;;;5001506;28;20230;-79
2024/01/08 05:37:47;;;;;;;22.92;21.45;;;;;;;;;;5002015;28;20789;-80
2024/01/08 05:40:14;;;;;;;21.75;20.30;;;;;;;;;;5020621;28;20238;-78
2024/01/08 05:42:41;;;;;;;21.35;19.90;;;;;;;;;;5021085;28;20213;-80
2024/01/08 05:45:08;;;;;;;22.35;20.75;;;;;;;;;;5021019;28;20349;-80
2024/01/08 05:47:35;;;;;;;22.65;21.05;;;;;;;;;;5020314;28;20225;-78
2024/01/08 05:50:04;;;;;;;23.90;22.33;;;;;;;;;;5000751;28;20264;-79
2024/01/08 05:52:31;;;;;;;22.75;21.38;;;;;;;;;;5002271;28;20229;-79
2024/01/08 05:54:58;;;;;;;22.70;21.15;;;;;;;;;;5001351;28;20222;-79
2024/01/08 05:57:25;;;;;;;23.35;21.70;;;;;;;;;;5000845;28;20284;-79
2024/01/08 05:59:52;;;;;;;22.33;20.83;;;;;;;;;;5000231;28;20206;-79
2024/01/08 06:02:19;;;;;;;23.40;21.88;;;;;;;;;;5016890;28;20730;-79
2024/01/08 06:04:46;;;;;;;23.77;22.10;;;;;;;;;;5019824;28;20209;-81
2024/01/08 06:07:14;;;;;;;22.70;21.35;;;;;;;;;;5019493;28;20260;-78
2024/01/08 06:09:41;;;;;;;20.42;19.23;;;;;;;;;;5019346;28;20214;-79
2024/01/08 06:12:08;;;;;;;21.90;20.25;;;;;;;;;;5019179;28;20209;-80
2024/01/08 06:14:39;;;;;;;22.50;20.70;;;;;;;;;;5019692;28;20229;-80
2024/01/08 06:17:06;;;;;;;21.25;20.05;;;;;;;;;;5019380;28;20233;-79
2024/01/08 06:19:33;;;;;;;21.88;20.48;;;;;;;;;;5019331;28;20205;-79
2024/01/08 06:22:00;;;;;;;21.52;20.17;;;;;;;;;;5019656;28;20210;-80
2024/01/08 06:24:28;;;;;;;21.60;20.20;;;;;;;;;;5019790;28;20260;-80
2024/01/08 06:26:56;;;;;;;22.13;20.73;;;;;;;;;;5000583;28;20309;-79
2024/01/08 06:29:23;;;;;;;21.42;20.13;;;;;;;;;;5000001;28;20242;-80
2024/01/08 06:31:50;;;;;;;21.33;20.02;;;;;;;;;;4998620;28;20210;-80
2024/01/08 06:34:17;;;;;;;23.00;21.50;;;;;;;;;;4999292;28;20198;-81
2024/01/08 06:36:44;;;;;;;21.25;19.95;;;;;;;;;;4999284;28;20775;-80
2024/01/08 06:39:11;;;;;;;21.52;20.15;;;;;;;;;;4999194;28;20674;-79
2024/01/08 06:41:40;;;;;;;21.70;20.20;;;;;;;;;;4998107;28;20289;-78
2024/01/08 06:44:07;;;;;;;20.48;19.35;;;;;;;;;;4999419;28;20241;-78
2024/01/08 06:46:34;;;;;;;21.48;20.08;;;;;;;;;;4998316;28;20202;-79
2024/01/08 06:49:01;;;;;;;21.73;20.42;;;;;;;;;;4999501;28;20682;-79
2024/01/08 06:51:28;;;;;;;22.35;21.05;;;;;;;;;;4999107;28;20210;-81
2024/01/08 06:53:55;;;;;;;21.83;20.48;;;;;;;;;;5000210;28;20230;-81
2024/01/08 06:56:22;;;;;;;20.52;19.15;;;;;;;;;;4998743;28;20624;-81
2024/01/08 06:58:50;;;;;;;21.83;20.50;;;;;;;;;;4999335;28;20214;-81
2024/01/08 07:01:17;;;;;;;22.75;21.35;;;;;;;;;;5008382;28;20213;-80
2024/01/08 07:03:44;;;;;;;22.83;21.40;;;;;;;;;;5020163;28;20710;-79
2024/01/08 07:06:11;;;;;;;22.17;20.88;;;;;;;;;;5020199;28;20201;-79
2024/01/08 07:08:38;;;;;;;21.30;19.95;;;;;;;;;;5019331;28;20290;-81
2024/01/08 07:11:05;;;;;;;21.63;20.33;;;;;;;;;;5019479;28;20259;-81
2024/01/08 07:13:32;;;;;;;21.83;20.55;;;;;;;;;;5012511;28;20257;-81
2024/01/08 07:16:03;;;;;;;22.25;20.80;;;;;;;;;;4999958;28;20710;-78
2024/01/08 07:18:30;;;;;;;22.02;20.67;;;;;;;;;;5038669;28;20268;-80
2024/01/08 07:20:57;;;;;;;21.90;20.60;;;;;;;;;;5029128;28;20260;-79
2024/01/08 07:23:25;;;;;;;23.52;21.58;;;;;;;;;;5018546;28;20205;-80
2024/01/08 07:25:53;;;;;;;21.52;20.23;;;;;;;;;;5018601;28;20212;-79
2024/01/08 07:28:20;;;;;;;22.10;20.65;;;;;;;;;;5018927;28;20354;-78
2024/01/08 07:30:47;;;;;;;23.48;21.92;;;;;;;;;;5017574;28;20217;-79
2024/01/08 07:33:15;;;;;;;23.33;21.88;;;;;;;;;;5018214;28;20237;-78
2024/01/08 07:35:42;;;;;;;22.77;21.38;;;;;;;;;;5017184;28;20296;-80
2024/01/08 07:38:09;;;;;;;23.50;22.05;;;;;;;;;;5009074;28;20229;-79
2024/01/08 07:40:36;;;;;;;22.17;20.77;;;;;;;;;;5004788;28;20629;-80
2024/01/08 07:43:03;;;;;;;22.58;21.27;;;;;;;;;;5038675;28;20224;-78
2024/01/08 07:45:30;;;;;;;23.23;21.77;;;;;;;;;;5034990;28;20194;-78
2024/01/08 07:47:57;;;;;;;23.42;21.60;;;;;;;;;;5013908;28;20642;-79
2024/01/08 07:50:26;;;;;;;22.90;21.40;;;;;;;;;;5004454;28;20240;-79
2024/01/08 07:52:53;;;;;;;22.33;21.00;;;;;;;;;;5019103;28;20237;-79
2024/01/08 07:55:20;;;;;;;23.33;21.88;;;;;;;;;;5033946;28;20228;-79
2024/01/08 07:57:47;;;;;;;23.90;22.42;;;;;;;;;;5044364;28;20319;-80
2024/01/08 08:00:15;;;;;;;23.13;21.73;;;;;;;;;;5045022;28;20204;-79
2024/01/08 08:02:42;;;;;;;23.95;22.45;;;;;;;;;;5042874;28;20212;-79
2024/01/08 08:05:09;;;;;;;23.35;21.95;;;;;;;;;;5025350;28;20228;-78
2024/01/08 08:07:38;;;;;;;22.67;21.30;;;;;;;;;;5024626;28;20221;-78
2024/01/08 08:10:05;;;;;;;22.65;21.35;;;;;;;;;;5024960;28;20217;-80
2024/01/08 08:12:33;;;;;;;21.73;20.25;;;;;;;;;;5023396;28;20919;-78
2024/01/08 08:15:00;;;;;;;21.65;20.45;;;;;;;;;;5024266;28;20304;-80
2024/01/08 08:17:27;;;;;;;23.45;21.85;;;;;;;;;;5023696;28;20225;-80
2024/01/08 08:19:55;;;;;;;23.88;22.38;;;;;;;;;;5023504;28;20681;-79
2024/01/08 08:22:22;;;;;;;23.90;22.38;;;;;;;;;;5022505;28;20236;-79
2024/01/08 08:24:50;;;;;;;23.25;21.75;;;;;;;;;;5023283;28;20209;-78
2024/01/08 08:27:17;;;;;;;23.20;21.70;;;;;;;;;;5023033;28;20229;-80
2024/01/08 08:29:47;;;;;;;23.50;22.10;;;;;;;;;;5016696;28;20608;-79
2024/01/08 08:32:14;;;;;;;23.85;22.40;;;;;;;;;;5009713;28;20244;-80
2024/01/08 08:34:42;;;;;;;22.45;21.15;;;;;;;;;;5015062;28;20209;-87
2024/01/08 08:37:09;;;;;;;22.23;20.92;;;;;;;;;;5026861;28;20238;-84
2024/01/08 08:39:36;;;;;;;22.70;21.40;;;;;;;;;;5017353;28;20233;-80
2024/01/08 08:42:05;;;;;;;22.85;21.42;;;;;;;;;;5020104;28;20209;-81
2024/01/08 08:44:33;;;;;;;22.83;21.42;;;;;;;;;;5020674;28;20685;-79
2024/01/08 08:47:02;;;;;;;23.40;21.95;;;;;;;;;;5020873;28;20225;-76
2024/01/08 08:49:29;;;;;;;24.30;22.60;;;;;;;;;;5022803;28;20201;-78
2024/01/08 08:51:56;;;;;;;23.10;21.60;;;;;;;;;;5011900;28;20696;-78
2024/01/08 08:54:23;;;;;;;23.17;21.77;;;;;;;;;;5015870;28;20267;-79
2024/01/08 08:56:50;;;;;;;23.60;22.10;;;;;;;;;;5016105;28;20261;-79
2024/01/08 08:59:19;;;;;;;23.90;22.40;;;;;;;;;;5016522;28;20283;-78
2024/01/08 09:01:49;;;;;;;23.80;22.30;;;;;;;;;;5013548;28;20305;-79
2024/01/08 09:04:16;;;;;;;22.67;21.40;;;;;;;;;;5016244;28;20277;-78
2024/01/08 09:06:43;;;;;;;23.60;22.10;;;;;;;;;;5015707;28;20304;-79
2024/01/08 09:09:12;;;;;;;23.10;21.63;;;;;;;;;;5015069;28;20271;-77
2024/01/08 09:17:47;;;;;;;25.02;23.33;;;;;;;;;;4994007;28;20293;-80
2024/01/08 09:20:15;;;;;;;23.88;22.38;;;;;;;;;;4996714;28;20256;-78
2024/01/08 09:22:41;;;;;;;24.52;22.92;;;;;;;;;;4995290;28;20261;-79
2024/01/08 09:25:09;;;;;;;22.77;21.38;;;;;;;;;;4996847;28;20210;-78
2024/01/08 09:30:40;;;;;;;24.25;22.60;;;;;;;;;;4994143;28;20231;-78
2024/01/08 09:33:09;;;;;;;23.33;21.83;;;;;;;;;;4997423;28;20627;-79
2024/01/08 09:35:36;;;;;;;23.85;22.45;;;;;;;;;;4996159;28;20230;-78
2024/01/08 09:38:03;;;;;;;23.23;21.85;;;;;;;;;;4995639;28;20234;-78
2024/01/08 09:47:05;;;;;;;25.00;23.40;;;;;;;;;;5007499;28;20276;-78
2024/01/08 09:49:34;;;;;;;23.73;22.42;;;;;;;;;;5002992;28;20245;-84
2024/01/08 09:52:02;;;;;;;24.15;22.55;;;;;;;;;;5021921;28;20241;-84
2024/01/08 09:54:30;;;;;;;23.08;21.58;;;;;;;;;;5015534;28;20206;-82
2024/01/08 09:56:59;;;;;;;23.15;21.70;;;;;;;;;;5022362;28;20300;-86
2024/01/08 10:02:30;;;;;;;23.30;21.70;;;;;;;;;;5001005;28;20197;-86
2024/01/08 10:04:59;;;;;;;22.08;20.77;;;;;;;;;;5004212;28;20210;-84
2024/01/08 10:07:27;;;;;;;23.42;22.02;;;;;;;;;;5013527;28;20279;-79
2024/01/08 10:09:54;;;;;;;24.35;22.85;;;;;;;;;;5011096;28;20227;-77
2024/01/08 10:12:21;;;;;;;24.00;22.60;;;;;;;;;;5001325;28;20230;-75
2024/01/08 10:14:48;;;;;;;24.40;22.95;;;;;;;;;;5011991;28;20214;-74
2024/01/08 10:17:14;;;;;;;24.55;23.15;;;;;;;;;;4995424;28;20778;-75
2024/01/08 10:19:41;;;;;;;24.08;22.35;;;;;;;;;;4991586;28;20242;-75
2024/01/08 10:22:11;;;;;;;24.42;22.92;;;;;;;;;;4991938;28;20202;-74
2024/01/08 10:24:39;;;;;;;23.35;21.88;;;;;;;;;;4992364;28;20210;-74
2024/01/08 10:27:06;;;;;;;24.20;22.70;;;;;;;;;;4992299;28;20241;-76
2024/01/08 10:29:33;;;;;;;23.17;21.77;;;;;;;;;;4992224;28;20214;-74
2024/01/08 10:32:00;;;;;;;24.85;23.25;;;;;;;;;;4995202;28;20240;-74
2024/01/08 10:34:28;;;;;;;23.67;22.13;;;;;;;;;;5006204;28;20221;-77
2024/01/08 10:36:55;;;;;;;25.17;23.58;;;;;;;;;;5011269;28;20324;-77
2024/01/08 10:39:24;;;;;;;24.08;22.48;;;;;;;;;;5011908;28;20658;-77
2024/01/08 10:41:52;;;;;;;23.02;21.63;;;;;;;;;;5011105;28;20221;-78
2024/01/08 10:44:19;;;;;;;23.25;21.75;;;;;;;;;;5011774;28;20213;-77
2024/01/08 10:46:48;;;;;;;23.60;22.20;;;;;;;;;;5010979;28;20241;-77
2024/01/08 10:49:19;;;;;;;24.17;22.55;;;;;;;;;;5011538;28;20209;-76
2024/01/08 10:51:48;;;;;;;23.33;21.92;;;;;;;;;;5010955;28;20209;-78
2024/01/08 10:54:18;;;;;;;23.50;22.00;;;;;;;;;;5011077;28;20217;-78
2024/01/08 10:56:47;;;;;;;25.10;23.23;;;;;;;;;;5011082;28;20731;-77
2024/01/08 10:59:18;;;;;;;24.67;23.27;;;;;;;;;;5011405;28;20209;-77
2024/01/08 11:01:46;;;;;;;25.65;23.98;;;;;;;;;;5010694;28;20588;-77
2024/01/08 11:04:13;;;;;;;25.17;23.35;;;;;;;;;;5011223;28;20227;-77
2024/01/08 11:06:42;;;;;;;23.88;22.33;;;;;;;;;;5010778;28;20644;-77
2024/01/08 11:09:24;;;;;;;23.80;22.30;;;;;;;;;;5011015;28;20264;-76
2024/01/08 11:11:52;;;;;;;24.20;22.50;;;;;;;;;;5010349;28;20185;-76
2024/01/08 11:14:19;;;;;;;23.88;22.23;;;;;;;;;;5010845;28;20237;-78
2024/01/08 11:16:47;;;;;;;24.45;22.85;;;;;;;;;;5010924;28;20232;-76
2024/01/08 11:19:29;;;;;;;25.17;23.40;;;;;;;;;;5011074;28;20217;-77
2024/01/08 11:21:57;;;;;;;24.67;23.10;;;;;;;;;;5010455;28;20210;-76
2024/01/08 11:24:25;;;;;;;24.20;22.60;;;;;;;;;;5011130;28;20210;-79
2024/01/08 11:26:53;;;;;;;24.25;22.65;;;;;;;;;;5010694;28;20233;-78
2024/01/08 11:29:21;;;;;;;23.38;21.88;;;;;;;;;;5011124;28;20901;-76
2024/01/08 11:32:14;;;;;;;24.58;22.98;;;;;;;;;;5010615;28;20213;-77
2024/01/08 11:34:57;;;;;;;26.73;24.35;;;;;;;;;;5011140;28;20201;-76
2024/01/08 11:37:32;;;;;;;24.08;22.48;;;;;;;;;;5010892;28;20221;-76
2024/01/08 11:39:59;;;;;;;23.42;21.83;;;;;;;;;;5007829;28;20213;-76
2024/01/08 11:42:28;;;;;;;24.80;23.15;;;;;;;;;;5010313;28;20231;-76
2024/01/08 11:44:55;;;;;;;24.08;22.58;;;;;;;;;;5010982;28;20205;-77
2024/01/08 11:47:22;;;;;;;23.77;22.27;;;;;;;;;;5014186;28;20307;-88
2024/01/08 11:49:51;;;;;;;24.73;23.10;;;;;;;;;;5031575;28;20263;-88
2024/01/08 11:52:18;;;;;;;22.45;21.05;;;;;;;;;;5016062;28;20212;-80
2024/01/08 11:54:48;;;;;;;23.40;21.73;;;;;;;;;;5017514;28;20611;-76
2024/01/08 11:57:15;;;;;;;22.95;21.55;;;;;;;;;;4998507;28;20324;-77
2024/01/08 11:59:43;;;;;;;24.48;22.77;;;;;;;;;;4991681;28;20218;-77
2024/01/08 12:02:14;;;;;;;22.77;21.38;;;;;;;;;;5011291;28;20210;-87
2024/01/08 12:04:41;;;;;;;24.05;22.45;;;;;;;;;;4998183;28;20214;-88
2024/01/08 12:07:11;;;;;;;23.52;22.02;;;;;;;;;;4994791;28;20286;-76
2024/01/08 12:09:38;;;;;;;23.02;21.63;;;;;;;;;;5007297;28;20221;-77
2024/01/08 12:12:05;;;;;;;22.35;20.95;;;;;;;;;;5009663;28;20288;-75
2024/01/08 12:14:33;;;;;;;22.02;20.73;;;;;;;;;;5010875;28;20256;-77
2024/01/08 12:17:02;;;;;;;23.95;22.05;;;;;;;;;;5010706;28;20237;-77
2024/01/08 12:19:40;;;;;;;22.83;21.42;;;;;;;;;;5011007;28;20245;-76
2024/01/08 12:22:07;;;;;;;24.48;22.88;;;;;;;;;;5010527;28;20247;-77
2024/01/08 12:24:35;;;;;;;23.13;21.67;;;;;;;;;;5013402;28;20622;-78
2024/01/08 12:27:03;;;;;;;22.80;21.40;;;;;;;;;;5014561;28;20237;-77
2024/01/08 12:29:30;;;;;;;23.33;21.83;;;;;;;;;;5014778;28;20202;-77
2024/01/08 12:31:58;;;;;;;22.17;20.92;;;;;;;;;;5014210;28;20209;-76
2024/01/08 12:34:29;;;;;;;23.70;22.20;;;;;;;;;;5014623;28;20613;-77
2024/01/08 12:36:56;;;;;;;24.92;23.15;;;;;;;;;;5015165;28;20918;-77
2024/01/08 12:39:24;;;;;;;23.83;22.30;;;;;;;;;;5014394;28;20213;-76
2024/01/08 12:41:55;;;;;;;23.05;21.75;;;;;;;;;;5014131;28;20210;-76
2024/01/08 12:44:22;;;;;;;24.58;22.90;;;;;;;;;;5013825;28;20213;-78
2024/01/08 12:46:49;;;;;;;24.40;22.85;;;;;;;;;;5014344;28;20233;-76
2024/01/08 12:49:16;;;;;;;24.63;22.92;;;;;;;;;;5014217;28;20209;-76
2024/01/08 12:51:44;;;;;;;23.20;21.80;;;;;;;;;;5013645;28;20544;-77
2024/01/08 12:54:11;;;;;;;23.50;22.10;;;;;;;;;;5014321;28;20613;-75
2024/01/08 12:56:38;;;;;;;23.42;22.02;;;;;;;;;;5014379;28;20228;-78
2024/01/08 12:59:07;;;;;;;22.70;21.25;;;;;;;;;;5014366;28;20205;-76
2024/01/08 13:01:34;;;;;;;24.08;22.58;;;;;;;;;;5013759;28;20212;-77
2024/01/08 13:04:02;;;;;;;23.67;22.25;;;;;;;;;;5014358;28;20217;-77
2024/01/08 13:06:29;;;;;;;24.50;22.88;;;;;;;;;;5013678;28;20665;-76
2024/01/08 13:08:57;;;;;;;26.25;24.10;;;;;;;;;;5013276;28;20642;-77
2024/01/08 13:11:24;;;;;;;21.55;20.25;;;;;;;;;;5013337;28;20255;-76
2024/01/08 13:13:52;;;;;;;25.00;23.30;;;;;;;;;;5014022;28;20611;-76
2024/01/08 13:16:19;;;;;;;23.48;21.98;;;;;;;;;;5013855;28;20220;-77
2024/01/08 13:18:46;;;;;;;23.98;22.38;;;;;;;;;;5013614;28;20226;-78
2024/01/08 13:21:13;;;;;;;24.05;22.45;;;;;;;;;;5012679;28;20685;-78
2024/01/08 13:23:41;;;;;;;23.70;22.30;;;;;;;;;;5012033;28;20217;-77
2024/01/08 13:26:12;;;;;;;23.15;21.60;;;;;;;;;;5013823;28;20695;-76
2024/01/08 13:28:39;;;;;;;24.63;23.02;;;;;;;;;;5014088;28;20226;-77
2024/01/08 13:31:06;;;;;;;23.98;22.38;;;;;;;;;;5001460;28;20281;-76
2024/01/08 13:33:33;;;;;;;25.27;23.60;;;;;;;;;;4993291;28;20704;-77
2024/01/08 13:36:00;;;;;;;25.45;23.80;;;;;;;;;;4993252;28;20213;-79
2024/01/08 13:38:27;;;;;;;25.52;23.70;;;;;;;;;;4992906;28;20309;-76
2024/01/08 13:40:57;;;;;;;24.02;22.40;;;;;;;;;;4993157;28;20276;-76
2024/01/08 13:43:26;;;;;;;24.38;22.67;;;;;;;;;;4994664;28;20206;-84
2024/01/08 13:45:53;;;;;;;24.08;22.45;;;;;;;;;;4995806;28;20265;-78
2024/01/08 13:48:21;;;;;;;25.63;23.95;;;;;;;;;;4994827;28;20588;-78
2024/01/08 13:50:48;;;;;;;25.48;23.70;;;;;;;;;;4993112;28;20268;-76
2024/01/08 13:53:15;;;;;;;24.83;23.13;;;;;;;;;;4993820;28;20601;-77
2024/01/08 13:55:42;;;;;;;24.50;23.00;;;;;;;;;;4993863;28;20224;-78
2024/01/08 13:58:09;;;;;;;24.27;22.77;;;;;;;;;;5027744;28;20246;-76
2024/01/08 14:00:38;;;;;;;25.02;23.33;;;;;;;;;;5030553;28;20260;-78
2024/01/08 14:03:05;;;;;;;25.35;23.65;;;;;;;;;;4995094;28;20212;-77
2024/01/08 14:05:32;;;;;;;24.98;23.27;;;;;;;;;;5011756;28;20205;-76
2024/01/08 14:08:00;;;;;;;24.05;22.25;;;;;;;;;;5012160;28;20229;-77
2024/01/08 14:10:27;;;;;;;23.23;21.73;;;;;;;;;;5012912;28;20190;-77
2024/01/08 14:12:54;;;;;;;22.23;20.80;;;;;;;;;;5012836;28;20210;-76
2024/01/08 14:15:21;;;;;;;24.20;22.60;;;;;;;;;;5012968;28;20244;-78
2024/01/08 14:17:50;;;;;;;23.67;22.17;;;;;;;;;;5012681;28;20226;-77
2024/01/08 14:20:17;;;;;;;23.83;22.38;;;;;;;;;;5014460;28;20232;-76
2024/01/08 14:22:44;;;;;;;24.45;22.95;;;;;;;;;;5012466;28;20213;-75
2024/01/08 14:25:11;;;;;;;24.52;22.85;;;;;;;;;;5012717;28;20206;-78
2024/01/08 14:27:38;;;;;;;25.00;23.20;;;;;;;;;;5012964;28;20629;-76
2024/01/08 14:30:06;;;;;;;26.15;24.42;;;;;;;;;;5013022;28;20208;-78
2024/01/08 14:32:33;;;;;;;25.17;23.23;;;;;;;;;;5012231;28;20213;-77
2024/01/08 14:35:03;;;;;;;24.33;22.83;;;;;;;;;;5012594;28;20205;-78
2024/01/08 14:37:30;;;;;;;24.00;22.50;;;;;;;;;;5012590;28;20236;-78